Time;durP1;ratioP1;P1;durP2;ratioP2;P2;SDS_P1;SDS_P2;PMS_P1;PMS_P2;Temp;Humidity;BMP_temperature;BMP_pressure;BME280_temperature;BME280_humidity;BME280_pressure;Samples;Min_cycle;Max_cycle;Signal;HPM_P1;HPM_P2
2022/06/11 00:01:22;;;;;;;5.00;4.57;;;;;;;15.92;87.35;101380.28;4878931;29;20077;-82
2022/06/11 00:03:52;;;;;;;5.72;4.30;;;;;;;15.93;86.21;101382.03;4881551;29;20104;-83
2022/06/11 00:06:25;;;;;;;5.10;4.20;;;;;;;15.94;86.49;101381.09;4879343;29;20577;-83
2022/06/11 00:08:52;;;;;;;5.20;4.70;;;;;;;15.93;86.18;101392.69;4874696;29;20055;-83
2022/06/11 00:11:19;;;;;;;5.88;4.68;;;;;;;15.89;86.94;101388.34;4872267;29;20125;-83
2022/06/11 00:13:46;;;;;;;4.65;4.18;;;;;;;15.87;87.31;101383.09;4856525;29;20048;-83
2022/06/11 00:16:17;;;;;;;5.10;4.53;;;;;;;15.85;88.22;101384.94;4880689;29;20041;-83
2022/06/11 00:18:48;;;;;;;4.10;3.80;;;;;;;15.85;88.21;101387.59;4877033;29;20048;-83
2022/06/11 00:21:17;;;;;;;5.05;4.55;;;;;;;15.86;87.96;101380.47;4872504;29;20048;-84
2022/06/11 00:23:47;;;;;;;5.57;5.03;;;;;;;15.89;87.26;101383.94;4890230;29;20634;-81
2022/06/11 00:26:14;;;;;;;5.22;4.80;;;;;;;15.82;88.00;101382.38;4905863;29;20119;-82
2022/06/11 00:28:40;;;;;;;5.40;4.88;;;;;;;15.83;88.97;101383.25;4884281;29;20462;-83
2022/06/11 00:31:10;;;;;;;5.07;4.57;;;;;;;15.75;89.33;101384.34;4880687;29;20044;-82
2022/06/11 00:33:38;;;;;;;4.95;4.55;;;;;;;15.73;90.31;101383.53;4866591;29;20040;-83
2022/06/11 00:36:06;;;;;;;6.28;5.20;;;;;;;15.75;89.98;101381.69;4870376;29;20051;-83
2022/06/11 00:38:36;;;;;;;5.20;4.70;;;;;;;15.75;89.94;101384.34;4903633;29;20048;-84
2022/06/11 00:41:05;;;;;;;4.60;4.30;;;;;;;15.74;90.15;101385.28;4882844;29;20108;-81
2022/06/11 00:43:32;;;;;;;5.22;4.72;;;;;;;15.75;90.52;101380.81;4896260;29;20143;-82
2022/06/11 00:46:21;;;;;;;5.63;4.63;;;;;;;15.72;90.63;101378.22;4856830;29;20050;-83
2022/06/11 00:48:48;;;;;;;5.32;4.85;;;;;;;15.69;90.77;101384.53;4890392;29;20052;-82
2022/06/11 00:51:18;;;;;;;4.88;4.47;;;;;;;15.65;91.42;101384.69;4881455;29;20044;-84
2022/06/11 00:53:56;;;;;;;5.07;4.65;;;;;;;15.61;91.91;101383.88;4899675;29;20050;-83
2022/06/11 00:56:28;;;;;;;5.60;4.93;;;;;;;15.59;92.44;101380.34;4882694;29;20048;-83
2022/06/11 00:59:01;;;;;;;5.25;4.75;;;;;;;15.58;92.96;101373.28;4867490;29;20048;-83
2022/06/11 01:01:28;;;;;;;5.63;5.13;;;;;;;15.55;93.31;101376.03;4868028;29;20528;-82
2022/06/11 01:03:58;;;;;;;5.28;4.88;;;;;;;15.53;93.87;101374.34;4867911;29;20107;-84
2022/06/11 01:06:45;;;;;;;5.20;4.80;;;;;;;15.47;94.11;101375.41;4890374;29;20704;-82
2022/06/11 01:09:41;;;;;;;5.47;4.97;;;;;;;15.39;94.68;101372.09;4875984;29;20139;-82
2022/06/11 01:12:25;;;;;;;5.90;5.30;;;;;;;15.32;95.47;101378.50;4865223;29;20056;-83
2022/06/11 01:15:18;;;;;;;5.35;4.85;;;;;;;15.23;95.61;101376.13;4871929;29;20048;-82
2022/06/11 01:18:04;;;;;;;6.03;5.22;;;;;;;15.16;96.44;101384.25;4895511;29;20040;-81
2022/06/11 01:20:41;;;;;;;6.05;5.10;;;;;;;15.09;96.68;101381.81;4887281;29;20427;-81
2022/06/11 01:23:33;;;;;;;5.47;5.00;;;;;;;15.02;96.80;101383.75;4892963;29;21573;-82
2022/06/11 01:26:19;;;;;;;6.10;5.40;;;;;;;14.93;96.83;101379.56;4878643;29;20059;-82
2022/06/11 01:29:11;;;;;;;6.15;5.65;;;;;;;14.84;97.24;101377.16;4899244;29;20052;-82
2022/06/11 01:32:00;;;;;;;7.43;5.88;;;;;;;14.75;97.74;101374.72;4895213;29;20047;-83
2022/06/11 01:34:39;;;;;;;6.53;5.93;;;;;;;14.63;98.37;101375.06;4859838;29;20477;-82
2022/06/11 01:37:13;;;;;;;6.70;5.80;;;;;;;14.49;99.28;101377.19;4861067;29;20045;-83
2022/06/11 01:39:48;;;;;;;7.20;5.80;;;;;;;14.35;100.00;101370.41;4878913;29;20422;-81
2022/06/11 01:42:20;;;;;;;7.72;6.00;;;;;;;14.28;100.00;101368.78;4881869;29;20036;-82
2022/06/11 01:45:06;;;;;;;7.00;6.30;;;;;;;14.21;100.00;101367.22;4891732;29;20792;-82
2022/06/11 01:47:36;;;;;;;7.25;6.60;;;;;;;14.12;100.00;101366.53;4871915;29;20635;-82
2022/06/11 01:50:08;;;;;;;6.30;5.70;;;;;;;14.04;100.00;101364.06;4882167;29;20457;-83
2022/06/11 01:52:45;;;;;;;7.65;6.95;;;;;;;13.96;100.00;101364.28;4873088;29;20104;-81
2022/06/11 01:55:27;;;;;;;9.60;7.65;;;;;;;13.93;100.00;101360.78;4878649;29;20051;-82
2022/06/11 01:58:29;;;;;;;7.68;6.93;;;;;;;13.87;100.00;101366.25;4897008;29;20455;-82
2022/06/11 02:00:58;;;;;;;7.72;6.30;;;;;;;13.71;100.00;101376.34;4866578;29;20418;-81
2022/06/11 02:03:40;;;;;;;7.95;6.70;;;;;;;13.62;100.00;101373.88;4905623;29;20455;-81
2022/06/11 02:06:41;;;;;;;7.03;6.40;;;;;;;13.54;100.00;101371.41;4879077;29;20040;-80
2022/06/11 02:09:46;;;;;;;7.45;6.63;;;;;;;13.44;100.00;101378.66;4873052;29;20048;-81
2022/06/11 02:12:29;;;;;;;7.20;6.60;;;;;;;13.32;100.00;101363.00;4890405;29;20156;-82
2022/06/11 02:15:25;;;;;;;6.45;5.90;;;;;;;13.26;100.00;101376.41;4880792;29;20047;-81
2022/06/11 02:17:57;;;;;;;8.05;7.28;;;;;;;13.21;100.00;101370.31;4866166;29;20048;-82
2022/06/11 02:20:34;;;;;;;7.32;6.53;;;;;;;13.13;100.00;101365.13;4866038;29;20054;-81
2022/06/11 02:23:19;;;;;;;10.13;6.82;;;;;;;13.12;100.00;101371.34;4866861;29;20064;-81
2022/06/11 02:25:50;;;;;;;;;;;;;;;13.09;100.00;101371.38;4880173;29;20055;-80
2022/06/11 02:28:25;;;;;;;6.95;6.35;;;;;;;12.99;100.00;101368.94;4891074;29;20483;-82
2022/06/11 02:30:53;;;;;;;6.80;6.20;;;;;;;12.92;100.00;101373.50;4878632;29;20044;-80
2022/06/11 02:33:20;;;;;;;6.70;6.00;;;;;;;12.89;100.00;101377.09;4882028;29;20048;-80
2022/06/11 02:35:58;;;;;;;6.90;6.30;;;;;;;12.87;100.00;101378.03;4895758;29;20052;-81
2022/06/11 02:38:27;;;;;;;7.57;6.53;;;;;;;12.83;100.00;101382.50;4902152;29;20056;-83
2022/06/11 02:40:57;;;;;;;8.80;7.90;;;;;;;12.79;100.00;101380.81;4886986;29;20060;-80
2022/06/11 02:43:24;;;;;;;9.13;8.23;;;;;;;12.77;100.00;101385.25;4895975;29;20048;-80
2022/06/11 02:45:51;;;;;;;9.30;7.22;;;;;;;12.73;100.00;101380.91;4872834;29;20055;-81
2022/06/11 02:48:18;;;;;;;10.10;7.60;;;;;;;12.72;100.00;101380.94;4874742;29;20112;-80
2022/06/11 02:50:48;;;;;;;7.90;7.20;;;;;;;12.65;100.00;101374.88;4884992;29;20044;-81
2022/06/11 02:53:15;;;;;;;8.18;7.43;;;;;;;12.64;100.00;101383.72;4884659;29;20041;-80
2022/06/11 02:55:43;;;;;;;7.55;6.95;;;;;;;12.64;100.00;101384.59;4875564;29;20447;-80
2022/06/11 02:58:11;;;;;;;7.93;7.22;;;;;;;12.61;100.00;101381.13;4886350;29;20040;-80
2022/06/11 03:00:42;;;;;;;8.55;7.65;;;;;;;12.58;100.00;101382.03;4875086;29;20075;-81
2022/06/11 03:03:09;;;;;;;8.60;7.80;;;;;;;12.55;100.00;101382.13;4886342;29;20095;-80
2022/06/11 03:05:37;;;;;;;7.72;6.97;;;;;;;12.53;100.00;101389.22;4900682;29;20039;-81
2022/06/11 03:08:06;;;;;;;7.47;6.80;;;;;;;12.50;100.00;101383.97;4897865;29;20043;-82
2022/06/11 03:10:32;;;;;;;7.75;6.95;;;;;;;12.50;100.00;101389.25;4873615;29;20050;-82
2022/06/11 03:12:59;;;;;;;9.00;8.18;;;;;;;12.50;100.00;101380.44;4894291;29;20032;-80
2022/06/11 03:15:26;;;;;;;9.63;7.75;;;;;;;12.48;100.00;101384.88;4864915;29;20143;-83
2022/06/11 03:17:54;;;;;;;13.38;7.78;;;;;;;12.43;100.00;101381.44;4871686;23;20091;-82
2022/06/11 03:20:27;;;;;;;18.88;10.02;;;;;;;12.42;100.00;101392.94;4898113;29;20043;-82
2022/06/11 03:22:54;;;;;;;17.33;9.77;;;;;;;12.40;100.00;101383.25;4875842;29;20037;-82
2022/06/11 03:25:22;;;;;;;12.73;9.02;;;;;;;12.40;100.00;101377.94;4848172;29;20505;-81
2022/06/11 03:27:51;;;;;;;9.90;8.52;;;;;;;12.38;100.00;101382.41;4879925;29;20045;-80
2022/06/11 03:30:18;;;;;;;9.55;7.88;;;;;;;12.38;100.00;101385.03;4862476;29;20052;-80
2022/06/11 03:32:45;;;;;;;8.65;7.82;;;;;;;12.39;100.00;101385.91;4882501;29;20103;-81
2022/06/11 03:35:12;;;;;;;8.35;7.50;;;;;;;12.46;100.00;101386.69;4860442;29;20048;-79
2022/06/11 03:37:39;;;;;;;9.05;8.15;;;;;;;12.51;100.00;101393.66;4884435;29;20047;-80
2022/06/11 03:40:06;;;;;;;8.40;7.60;;;;;;;12.61;100.00;101387.31;4895350;29;20036;-79
2022/06/11 03:42:33;;;;;;;8.65;7.63;;;;;;;12.74;100.00;101393.25;4871582;29;20135;-80
2022/06/11 03:45:00;;;;;;;7.82;6.97;;;;;;;12.82;100.00;101393.13;4869321;29;20049;-80
2022/06/11 03:47:29;;;;;;;9.40;8.50;;;;;;;12.88;100.00;101393.91;4883991;29;20056;-81
2022/06/11 03:49:55;;;;;;;10.90;7.97;;;;;;;12.94;100.00;101400.84;4896930;29;20036;-80
2022/06/11 03:52:23;;;;;;;7.97;7.28;;;;;;;13.04;100.00;101385.66;4889455;29;20052;-80
2022/06/11 03:54:50;;;;;;;8.77;7.97;;;;;;;13.14;100.00;101389.88;4874676;29;20049;-79
2022/06/11 03:57:17;;;;;;;8.95;8.18;;;;;;;13.18;100.00;101389.78;4883434;29;20653;-81
2022/06/11 03:59:45;;;;;;;8.50;7.70;;;;;;;13.22;100.00;101390.66;4874958;29;20055;-78
2022/06/11 04:02:12;;;;;;;8.52;7.80;;;;;;;13.30;100.00;101396.69;4875587;29;20498;-79
2022/06/11 04:04:39;;;;;;;8.82;7.97;;;;;;;13.40;100.00;101392.06;4868831;29;20072;-78
2022/06/11 04:07:06;;;;;;;8.23;7.47;;;;;;;13.51;100.00;101396.22;4881492;29;20502;-78
2022/06/11 04:09:37;;;;;;;8.15;7.35;;;;;;;13.60;100.00;101397.81;4869782;29;20056;-79
2022/06/11 04:12:09;;;;;;;9.10;8.20;;;;;;;13.69;100.00;101402.91;4866079;29;20041;-79
2022/06/11 04:14:36;;;;;;;7.82;7.00;;;;;;;13.77;100.00;101402.75;4866444;29;20092;-78
2022/06/11 04:17:18;;;;;;;8.23;7.43;;;;;;;13.85;100.00;101398.16;4858243;29;20040;-79
2022/06/11 04:19:48;;;;;;;9.23;7.50;;;;;;;13.92;100.00;101389.13;4884071;29;20064;-80
2022/06/11 04:22:15;;;;;;;8.93;8.02;;;;;;;14.00;100.00;101384.53;4885464;29;20077;-79
2022/06/11 04:24:43;;;;;;;7.72;7.03;;;;;;;14.08;100.00;101387.00;4877904;29;20047;-79
2022/06/11 04:27:12;;;;;;;8.50;7.68;;;;;;;14.19;100.00;101387.63;4903617;29;20053;-79
2022/06/11 04:29:42;;;;;;;8.90;8.00;;;;;;;14.31;100.00;101392.66;4868177;29;20049;-80
2022/06/11 04:32:11;;;;;;;8.07;7.30;;;;;;;14.42;100.00;101397.72;4890200;29;20040;-79
2022/06/11 04:34:38;;;;;;;7.57;6.88;;;;;;;14.55;100.00;101401.84;4865939;29;20044;-80
2022/06/11 04:37:06;;;;;;;8.05;7.35;;;;;;;14.68;100.00;101388.22;4885293;29;20048;-79
2022/06/11 04:39:34;;;;;;;7.90;7.10;;;;;;;14.82;100.00;101391.41;4869502;29;20053;-80
2022/06/11 04:42:01;;;;;;;7.95;7.10;;;;;;;14.96;100.00;101396.34;4878546;29;20049;-78
2022/06/11 04:44:28;;;;;;;8.35;7.65;;;;;;;15.11;100.00;101399.47;4863189;29;20047;-79
2022/06/11 04:46:55;;;;;;;8.20;7.32;;;;;;;15.26;100.00;101397.31;4852783;29;20041;-80
2022/06/11 04:49:22;;;;;;;8.38;7.55;;;;;;;15.43;100.00;101398.56;4908448;29;20045;-81
2022/06/11 04:51:49;;;;;;;8.48;7.75;;;;;;;15.63;100.00;101399.81;4883482;29;20044;-80
2022/06/11 04:54:16;;;;;;;8.57;7.70;;;;;;;15.82;100.00;101405.47;4869297;29;20041;-81
2022/06/11 04:56:43;;;;;;;8.35;7.57;;;;;;;15.98;100.00;101396.97;4865045;29;20051;-78
2022/06/11 04:59:09;;;;;;;8.23;7.43;;;;;;;16.18;100.00;101401.66;4874599;29;20615;-80
2022/06/11 05:01:39;;;;;;;8.63;7.85;;;;;;;16.38;100.00;101397.47;4883888;29;20045;-80
2022/06/11 05:04:06;;;;;;;8.13;7.43;;;;;;;16.54;100.00;101396.91;4859831;29;21037;-79
2022/06/11 05:06:37;;;;;;;8.70;7.95;;;;;;;16.73;100.00;101394.56;4865639;29;20131;-78
2022/06/11 05:09:06;;;;;;;8.38;7.50;;;;;;;16.86;99.95;101400.31;4851053;29;20128;-79
2022/06/11 05:11:33;;;;;;;7.63;6.93;;;;;;;17.01;98.66;101398.94;4881622;29;20052;-79
2022/06/11 05:14:00;;;;;;;8.00;7.20;;;;;;;17.13;98.37;101406.47;4894988;29;20052;-79
2022/06/11 05:16:27;;;;;;;8.98;8.18;;;;;;;17.35;96.27;101409.25;4865823;29;20036;-80
2022/06/11 05:18:54;;;;;;;8.27;7.53;;;;;;;17.44;95.27;101407.13;4894445;29;20060;-80
2022/06/11 05:21:21;;;;;;;8.98;7.70;;;;;;;17.54;94.07;101410.31;4860831;29;20533;-80
2022/06/11 05:23:49;;;;;;;8.40;7.70;;;;;;;17.62;93.43;101410.03;4877836;29;20048;-80
2022/06/11 05:26:20;;;;;;;8.38;7.63;;;;;;;17.66;92.33;101409.00;4848093;29;20064;-80
2022/06/11 05:28:47;;;;;;;7.97;7.30;;;;;;;17.76;91.61;101417.56;4866310;29;21119;-78
2022/06/11 05:31:14;;;;;;;7.82;7.07;;;;;;;17.83;91.84;101411.06;4887672;29;20048;-80
2022/06/11 05:33:42;;;;;;;7.85;7.13;;;;;;;17.84;91.64;101404.78;4903630;29;20163;-79
2022/06/11 05:36:11;;;;;;;7.07;6.45;;;;;;;17.88;91.20;101412.59;4872667;29;20089;-80
2022/06/11 05:38:38;;;;;;;7.25;6.65;;;;;;;17.90;91.74;101415.22;4873411;29;20052;-79
2022/06/11 05:41:05;;;;;;;7.03;6.43;;;;;;;17.97;92.31;101409.56;4883466;29;20052;-79
2022/06/11 05:43:32;;;;;;;8.10;6.68;;;;;;;18.00;91.03;101411.28;4891404;29;20086;-80
2022/06/11 05:46:05;;;;;;;7.00;6.40;;;;;;;18.03;90.29;101405.78;4909994;29;20067;-79
2022/06/11 05:48:39;;;;;;;13.40;7.05;;;;;;;18.07;91.57;101409.19;4856436;29;20112;-79
2022/06/11 05:51:07;;;;;;;10.60;7.93;;;;;;;18.13;90.86;101412.50;4871251;29;20041;-79
2022/06/11 05:53:41;;;;;;;7.53;6.80;;;;;;;18.15;89.31;101399.06;4883488;29;20048;-80
2022/06/11 05:56:08;;;;;;;8.88;8.05;;;;;;;18.36;89.02;101405.38;4885094;29;20525;-79
2022/06/11 05:59:04;;;;;;;9.77;7.28;;;;;;;18.32;88.67;101399.25;4901059;29;20577;-80
2022/06/11 06:01:36;;;;;;;8.85;7.97;;;;;;;18.31;90.44;101412.69;4870548;29;20091;-79
2022/06/11 06:04:03;;;;;;;8.07;7.30;;;;;;;18.37;90.71;101404.44;4886828;29;20041;-79
2022/06/11 06:06:30;;;;;;;7.50;6.80;;;;;;;18.43;87.99;101404.19;4880845;29;20048;-79
2022/06/11 06:08:57;;;;;;;7.75;7.03;;;;;;;18.40;89.32;101407.84;4868475;29;20037;-79
2022/06/11 06:11:25;;;;;;;8.43;7.55;;;;;;;18.41;88.12;101408.72;4892184;29;20041;-79
2022/06/11 06:13:55;;;;;;;16.38;8.30;;;;;;;18.46;88.98;101404.91;4856901;29;20548;-80
2022/06/11 06:16:27;;;;;;;9.20;6.90;;;;;;;18.51;89.25;101407.44;4901725;29;20092;-82
2022/06/11 06:18:55;;;;;;;8.15;7.35;;;;;;;18.70;87.85;101404.88;4866015;29;20084;-79
2022/06/11 06:21:25;;;;;;;7.13;6.43;;;;;;;18.72;88.43;101408.34;4895302;29;20479;-80
2022/06/11 06:23:52;;;;;;;7.57;6.85;;;;;;;18.81;87.82;101407.94;4882646;29;20052;-80
2022/06/11 06:26:21;;;;;;;7.10;6.40;;;;;;;18.87;87.44;101409.50;4867900;29;20590;-81
2022/06/11 06:28:47;;;;;;;7.40;6.80;;;;;;;18.94;85.76;101417.22;4882647;29;20040;-81
2022/06/11 06:31:15;;;;;;;7.10;6.35;;;;;;;18.98;86.53;101424.16;4879310;29;20051;-80
2022/06/11 06:33:43;;;;;;;8.15;7.28;;;;;;;19.04;85.72;101413.19;4882181;29;20418;-81
2022/06/11 06:36:11;;;;;;;6.97;6.28;;;;;;;19.09;85.02;101424.59;4885427;29;20065;-79
2022/06/11 06:38:38;;;;;;;6.90;6.30;;;;;;;19.17;85.51;101421.56;4847087;29;20109;-80
2022/06/11 06:41:06;;;;;;;6.57;6.07;;;;;;;19.25;84.39;101419.41;4850851;29;20045;-80
2022/06/11 06:43:34;;;;;;;6.90;6.30;;;;;;;19.37;83.85;101412.63;4882743;29;20040;-79
2022/06/11 06:46:01;;;;;;;7.72;6.38;;;;;;;19.45;84.11;101418.53;4868817;29;20104;-79
2022/06/11 06:48:28;;;;;;;8.80;6.57;;;;;;;19.58;83.40;101421.53;4879721;29;20044;-79
2022/06/11 06:50:55;;;;;;;9.95;6.97;;;;;;;19.71;83.18;101411.13;4850388;29;20053;-79
2022/06/11 06:53:23;;;;;;;11.98;7.45;;;;;;;19.79;82.74;101409.81;4862525;29;20045;-80
2022/06/11 06:55:50;;;;;;;8.00;5.93;;;;;;;19.89;80.70;101410.25;4880351;29;20044;-79
2022/06/11 06:58:17;;;;;;;52.25;10.77;;;;;;;20.01;79.97;101415.06;4867281;29;20524;-79
2022/06/11 07:00:45;;;;;;;17.25;7.20;;;;;;;20.06;80.34;101415.69;4878807;29;20052;-79
2022/06/11 07:03:15;;;;;;;7.88;6.18;;;;;;;20.14;80.12;101413.50;4872267;29;20048;-79
2022/06/11 07:05:44;;;;;;;8.13;6.78;;;;;;;20.19;79.74;101416.84;4901401;29;20517;-78
2022/06/11 07:08:12;;;;;;;6.72;5.82;;;;;;;20.36;78.57;101412.47;4873261;29;20494;-79
2022/06/11 07:10:45;;;;;;;5.57;5.07;;;;;;;20.40;77.12;101406.88;4887707;29;20044;-79
2022/06/11 07:13:12;;;;;;;5.88;5.05;;;;;;;20.37;76.94;101407.03;4878406;29;20056;-78
2022/06/11 07:15:40;;;;;;;5.35;4.80;;;;;;;20.48;75.60;101412.75;4853807;29;21590;-79
2022/06/11 07:18:16;;;;;;;5.63;5.03;;;;;;;20.56;76.50;101406.13;4865303;29;20402;-80
2022/06/11 07:20:43;;;;;;;5.07;4.60;;;;;;;20.65;73.67;101405.66;4837476;29;20569;-79
2022/06/11 07:23:14;;;;;;;6.47;5.15;;;;;;;20.76;72.70;101408.66;4877671;29;20565;-79
2022/06/11 07:25:42;;;;;;;7.60;4.78;;;;;;;20.89;73.20;101404.41;4875521;29;20049;-81
2022/06/11 07:28:16;;;;;;;5.72;4.35;;;;;;;21.06;73.03;101403.53;4848061;29;20446;-79
2022/06/11 07:30:44;;;;;;;5.05;4.53;;;;;;;21.26;71.25;101407.84;4872471;29;20127;-79
2022/06/11 07:33:16;;;;;;;5.80;4.88;;;;;;;21.34;71.99;101405.66;4857276;29;20044;-80
2022/06/11 07:35:46;;;;;;;5.37;4.67;;;;;;;21.43;71.40;101407.00;4844589;29;20128;-79
2022/06/11 07:38:14;;;;;;;4.68;4.13;;;;;;;21.49;69.98;101398.59;4879532;29;20115;-80
2022/06/11 07:40:41;;;;;;;5.10;4.35;;;;;;;21.60;68.92;101413.19;4881756;29;20044;-78
2022/06/11 07:43:08;;;;;;;5.40;4.53;;;;;;;21.64;68.27;101400.47;4848588;29;20045;-78
2022/06/11 07:45:37;;;;;;;5.80;4.55;;;;;;;21.59;68.07;101407.91;4868618;29;20517;-78
2022/06/11 07:48:04;;;;;;;16.48;5.85;;;;;;;21.56;67.53;101408.06;4867429;29;20068;-78
2022/06/11 07:50:35;;;;;;;5.72;3.95;;;;;;;21.63;67.64;101402.28;4879451;29;20052;-78
2022/06/11 07:53:03;;;;;;;4.97;3.65;;;;;;;21.77;66.77;101406.00;4876536;29;20550;-78
2022/06/11 07:55:30;;;;;;;8.00;4.15;;;;;;;21.90;65.38;101405.25;4880890;29;20518;-78
2022/06/11 07:57:58;;;;;;;5.75;4.03;;;;;;;21.90;64.65;101402.56;4873860;29;20524;-77
2022/06/11 08:00:33;;;;;;;8.57;4.70;;;;;;;21.99;63.79;101403.00;4857804;29;20060;-79
2022/06/11 08:03:00;;;;;;;4.97;4.07;;;;;;;22.04;65.21;101406.31;4846971;29;20061;-78
2022/06/11 08:05:29;;;;;;;9.40;4.45;;;;;;;22.12;65.18;101413.03;4876112;29;20549;-79
2022/06/11 08:07:55;;;;;;;13.38;5.03;;;;;;;22.29;63.72;101406.69;4886365;29;20072;-81
2022/06/11 08:10:25;;;;;;;4.70;4.05;;;;;;;22.36;63.63;101405.34;4876332;29;20048;-81
2022/06/11 08:12:51;;;;;;;7.93;5.25;;;;;;;22.52;62.38;101407.16;4876282;29;20052;-79
2022/06/11 08:15:18;;;;;;;6.78;3.92;;;;;;;22.53;62.05;101407.06;4895473;29;20131;-79
2022/06/11 08:17:45;;;;;;;5.10;4.10;;;;;;;22.61;63.23;101412.00;4862069;29;20041;-79
2022/06/11 08:20:21;;;;;;;5.25;4.05;;;;;;;22.63;63.24;101407.41;4858445;29;20045;-80
2022/06/11 08:22:48;;;;;;;4.82;3.83;;;;;;;22.73;61.44;101403.22;4874260;29;20044;-78
2022/06/11 08:25:17;;;;;;;5.80;3.92;;;;;;;22.96;59.53;101402.75;4860426;29;20045;-78
2022/06/11 08:27:47;;;;;;;5.63;3.90;;;;;;;22.97;58.97;101403.63;4865824;29;20057;-79
2022/06/11 08:30:31;;;;;;;4.80;3.80;;;;;;;23.00;58.21;101406.97;4892566;29;20055;-79
2022/06/11 08:33:17;;;;;;;6.93;4.22;;;;;;;23.06;57.67;101402.19;4864582;29;20044;-80
2022/06/11 08:35:51;;;;;;;5.60;3.40;;;;;;;23.08;57.90;101414.59;4872924;29;20047;-80
2022/06/11 08:38:21;;;;;;;7.35;4.43;;;;;;;23.09;56.85;101410.94;4875743;29;20037;-80
2022/06/11 08:40:53;;;;;;;4.38;3.70;;;;;;;23.19;57.49;101411.25;4880723;23;20120;-79
2022/06/11 08:43:22;;;;;;;5.38;3.95;;;;;;;23.19;57.16;101404.00;4862326;29;20044;-79
2022/06/11 08:46:03;;;;;;;5.00;3.75;;;;;;;23.22;58.72;101398.47;4875313;29;21792;-78
2022/06/11 08:48:42;;;;;;;7.53;5.00;;;;;;;23.25;58.11;101406.34;4853293;29;20043;-79
2022/06/11 08:51:56;;;;;;;8.32;4.07;;;;;;;23.19;58.75;101405.84;4880374;29;20064;-78
2022/06/11 08:54:32;;;;;;;8.02;4.38;;;;;;;23.14;57.09;101405.28;4831949;29;20711;-79
2022/06/11 08:57:27;;;;;;;21.10;5.75;;;;;;;23.24;58.06;101417.22;4879770;29;20072;-78
2022/06/11 09:00:02;;;;;;;6.18;4.28;;;;;;;23.31;57.49;101407.81;4844780;29;20147;-79
2022/06/11 09:03:02;;;;;;;5.43;4.15;;;;;;;23.38;57.50;101413.69;4867588;29;20550;-79
2022/06/11 09:05:34;;;;;;;7.07;4.05;;;;;;;23.51;56.09;101407.41;4873389;29;20057;-79
2022/06/11 09:08:18;;;;;;;7.45;4.40;;;;;;;23.62;56.64;101406.75;4884303;29;20068;-80
2022/06/11 09:10:57;;;;;;;7.82;4.03;;;;;;;23.69;57.48;101410.81;4876140;29;20037;-79
2022/06/11 09:13:49;;;;;;;6.68;3.72;;;;;;;23.80;55.35;101410.16;4897365;29;20033;-79
2022/06/11 09:16:18;;;;;;;5.60;3.90;;;;;;;23.78;56.16;101409.38;4883986;29;20036;-79
2022/06/11 09:19:13;;;;;;;116.97;20.23;;;;;;;23.85;53.73;101408.88;4884999;29;20068;-79
2022/06/11 09:22:15;;;;;;;5.78;4.50;;;;;;;23.83;55.28;101407.25;4854047;29;20449;-80
2022/06/11 09:24:48;;;;;;;4.97;3.75;;;;;;;23.85;54.74;101408.00;4865525;29;20048;-79
2022/06/11 09:27:39;;;;;;;5.78;3.53;;;;;;;24.02;55.45;101410.47;4882359;29;20037;-79
2022/06/11 09:30:24;;;;;;;4.10;3.67;;;;;;;24.06;53.80;101408.47;4894720;29;20055;-80
2022/06/11 09:33:00;;;;;;;7.70;4.15;;;;;;;24.19;54.33;101403.97;4879650;29;20052;-79
2022/06/11 09:35:36;;;;;;;5.03;3.75;;;;;;;24.54;54.04;101398.97;4860988;29;20045;-79
2022/06/11 09:38:30;;;;;;;4.13;3.20;;;;;;;25.03;51.60;101394.78;4904167;29;20040;-80
2022/06/11 09:41:32;;;;;;;26.23;5.05;;;;;;;25.44;50.26;101400.00;4881171;29;20133;-79
2022/06/11 09:44:11;;;;;;;6.13;3.78;;;;;;;25.96;49.62;101397.13;4874199;29;20055;-79
2022/06/11 09:46:48;;;;;;;4.53;3.47;;;;;;;26.24;46.92;101395.97;4878950;29;20076;-78
2022/06/11 09:49:29;;;;;;;5.03;3.38;;;;;;;26.66;46.54;101396.44;4862654;29;20037;-78
2022/06/11 09:52:16;;;;;;;5.20;3.53;;;;;;;27.11;43.09;101391.19;4892350;29;20047;-79
2022/06/11 09:54:51;;;;;;;5.60;3.17;;;;;;;27.39;42.70;101385.28;4862044;29;20052;-78
2022/06/11 09:57:48;;;;;;;5.65;2.90;;;;;;;27.06;43.97;101385.25;4896574;29;20491;-79
2022/06/11 10:00:39;;;;;;;6.32;3.42;;;;;;;27.55;43.45;101382.22;4887505;29;20144;-80
2022/06/11 10:06:15;;;;;;;17.92;4.88;;;;;;;27.20;43.85;101372.31;4873707;29;20071;-79
2022/06/11 10:09:01;;;;;;;3.75;2.60;;;;;;;27.73;42.37;101377.19;4843003;29;20101;-80
2022/06/11 10:11:44;;;;;;;8.98;6.93;;;;;;;27.83;40.84;101378.19;4845923;29;20053;-81
2022/06/11 10:14:29;;;;;;;5.60;3.10;;;;;;;28.02;41.09;101378.38;4870514;29;20088;-80
2022/06/11 10:17:04;;;;;;;4.72;3.58;;;;;;;28.25;40.47;101370.16;4861178;29;20047;-80
2022/06/11 10:19:46;;;;;;;5.45;3.05;;;;;;;28.42;40.72;101364.22;4857668;29;20041;-78
2022/06/11 10:22:42;;;;;;;5.07;2.92;;;;;;;28.35;40.69;101362.16;4856751;29;20566;-80
2022/06/11 10:25:26;;;;;;;8.77;4.95;;;;;;;28.37;40.63;101368.31;4879411;29;20040;-81
2022/06/11 10:27:59;;;;;;;8.10;6.00;;;;;;;28.14;39.71;101368.34;4878009;29;20037;-77
2022/06/11 10:30:34;;;;;;;3.60;3.30;;;;;;;28.02;40.90;101366.66;4855530;29;20109;-79
2022/06/11 10:33:03;;;;;;;4.30;2.72;;;;;;;27.82;40.82;101367.41;4896489;29;20047;-79
2022/06/11 10:35:41;;;;;;;4.95;3.65;;;;;;;27.74;42.50;101365.31;4861209;29;20549;-79
2022/06/11 10:38:31;;;;;;;5.20;2.30;;;;;;;27.46;41.78;101361.25;4847532;29;20052;-79
2022/06/11 10:40:58;;;;;;;2.78;2.30;;;;;;;27.48;42.35;101360.13;4870582;29;20650;-79
2022/06/11 10:43:47;;;;;;;3.55;2.92;;;;;;;27.77;41.02;101355.09;4858843;29;20052;-80
2022/06/11 10:46:14;;;;;;;3.58;3.28;;;;;;;28.23;41.02;101347.69;4845281;29;20573;-79
2022/06/11 10:48:41;;;;;;;3.17;2.58;;;;;;;29.02;38.56;101340.06;4861604;29;20041;-78
2022/06/11 10:51:25;;;;;;;3.45;2.72;;;;;;;29.10;38.78;101341.13;4855524;29;20049;-81
2022/06/11 10:54:00;;;;;;;3.88;2.65;;;;;;;29.03;38.46;101333.63;4875698;29;20054;-81
2022/06/11 10:56:47;;;;;;;4.57;2.60;;;;;;;29.27;37.92;101339.63;4856064;29;20297;-81
2022/06/11 10:59:31;;;;;;;3.45;2.70;;;;;;;28.81;39.03;101329.16;4888077;29;20045;-80
2022/06/11 11:02:38;;;;;;;6.20;2.95;;;;;;;29.64;38.61;101330.91;4863645;29;20050;-81
2022/06/11 11:05:13;;;;;;;3.93;2.47;;;;;;;29.81;35.12;101322.06;4873642;29;20081;-77
2022/06/11 11:07:59;;;;;;;2.70;2.50;;;;;;;29.70;36.85;101319.47;4876945;29;20861;-79
2022/06/11 11:10:35;;;;;;;3.58;2.47;;;;;;;28.94;37.48;101327.13;4875937;29;20066;-81
2022/06/11 11:13:28;;;;;;;3.03;2.60;;;;;;;28.64;37.92;101322.47;4863659;29;20510;-79
2022/06/11 11:16:19;;;;;;;4.00;3.00;;;;;;;28.41;38.37;101318.13;4892498;29;21392;-80
2022/06/11 11:18:58;;;;;;;19.05;3.85;;;;;;;28.05;39.75;101310.22;4864849;29;20047;-78
2022/06/11 11:21:33;;;;;;;3.65;2.50;;;;;;;27.93;38.24;101311.25;4894426;29;20138;-78
2022/06/11 11:24:14;;;;;;;3.25;2.75;;;;;;;27.49;40.03;101306.69;4881649;29;20092;-79
2022/06/11 11:26:52;;;;;;;3.20;2.88;;;;;;;27.25;40.09;101316.84;4866439;29;20040;-78
2022/06/11 11:29:31;;;;;;;3.50;2.47;;;;;;;27.16;40.97;101313.03;4872548;29;20039;-77
2022/06/11 11:32:06;;;;;;;3.95;2.40;;;;;;;26.94;40.98;101313.81;4879380;29;20045;-78
2022/06/11 11:34:41;;;;;;;5.30;2.50;;;;;;;27.06;43.58;101309.31;4859183;29;20059;-77
2022/06/11 11:37:11;;;;;;;4.40;2.50;;;;;;;27.48;41.81;101308.56;4848836;29;20083;-80
2022/06/11 11:39:48;;;;;;;10.43;3.30;;;;;;;28.09;39.68;101299.97;4861778;29;20044;-79
2022/06/11 11:42:22;;;;;;;2.70;2.50;;;;;;;28.48;38.50;101293.00;4863348;29;20052;-77
2022/06/11 11:44:51;;;;;;;5.20;2.22;;;;;;;28.83;38.08;101295.38;4877703;29;20108;-80
2022/06/11 11:47:30;;;;;;;3.60;2.30;;;;;;;28.89;37.32;101294.00;4871470;29;20059;-80
2022/06/11 11:50:04;;;;;;;5.45;2.33;;;;;;;28.66;37.21;101297.84;4862633;29;20041;-79
2022/06/11 11:52:31;;;;;;;4.97;2.40;;;;;;;28.49;38.31;101293.88;4840696;29;20080;-80
2022/06/11 11:55:10;;;;;;;3.13;2.05;;;;;;;28.34;37.15;101293.34;4854728;29;20053;-81